KMEV

Minden-Tahoe Airport

Minden, Nevada, USA
METAR KMEV 191515Z AUTO 17010KT 10SM CLR 01/M05 A2999 RMK AO2
Observed Flight Rules
Jan-19 @ 15:15 UTC (16 minutes ago) Visual Flight Rules
Wind Visibility Clouds
170° at 10 knots 10 miles
  • Clear skies
Temperatures Readings
Current 1°C / 34°F
Dewpoint -5°C / 23°F
Humidity 65%
Altimeter 29.99" Hg
Pressure 1016 hPa
Elevation 1439
METAR KMEV 191515Z AUTO 17010KT 10SM CLR 01/M05 A2999 RMK AO2
Observed Flight Rules
Jan-19 @ 15:15 UTC
(16 minutes ago)
VFR
Wind Visibility
170° at 10 knots 10 miles
Clouds
  • Clear skies
Temperature Dewpoint
1°C / 34°F -5°C / 23°F
Humidity Altimeter Pressure
65% 29.99" Hg 1016 hPa